Time;durP1;ratioP1;P1;durP2;ratioP2;P2;SDS_P1;SDS_P2;PMS_P1;PMS_P2;Temp;Humidity;BMP_temperature;BMP_pressure;BME280_temperature;BME280_humidity;BME280_pressure;Samples;Min_cycle;Max_cycle;Signal;HPM_P1;HPM_P2
2023/05/22 00:01:31;;;;;;;8.20;7.33;;;17.50;75.20;;;17.58;61.63;97606.56;4992022;28;20479;-73
2023/05/22 00:04:01;;;;;;;8.60;7.53;;;17.50;75.20;;;17.55;61.83;97608.75;5010913;28;20459;-71
2023/05/22 00:06:28;;;;;;;9.27;7.37;;;17.50;75.20;;;17.52;61.67;97609.31;5002613;28;20458;-72
2023/05/22 00:08:57;;;;;;;10.07;8.20;;;17.50;75.00;;;17.52;61.57;97598.38;4991724;28;20550;-73
2023/05/22 00:11:24;;;;;;;8.80;7.50;;;17.60;75.10;;;17.54;61.51;97604.38;5030920;28;20940;-73
2023/05/22 00:13:52;;;;;;;7.47;6.27;;;17.60;75.00;;;17.62;61.17;97604.94;5021386;28;20573;-71
2023/05/22 00:16:19;;;;;;;10.60;6.73;;;17.60;74.90;;;17.63;61.12;97599.22;4998716;28;20469;-72
2023/05/22 00:18:46;;;;;;;8.17;7.27;;;17.60;74.80;;;17.66;60.84;97587.72;4998422;28;20546;-73
2023/05/22 00:21:15;;;;;;;8.40;7.60;;;17.60;74.60;;;17.63;60.75;97587.44;5006108;28;20999;-71
2023/05/22 00:23:42;;;;;;;9.00;6.87;;;17.60;74.60;;;17.61;60.88;97585.00;5008148;28;20459;-71
2023/05/22 00:26:09;;;;;;;8.10;7.30;;;17.60;74.50;;;17.59;60.62;97570.81;5011586;28;20482;-71
2023/05/22 00:28:37;;;;;;;7.63;6.93;;;17.60;74.30;;;17.56;60.72;97577.63;5015209;28;20455;-71
2023/05/22 00:31:04;;;;;;;8.90;7.50;;;17.60;74.40;;;17.64;60.63;97579.00;5019548;28;20857;-72
2023/05/22 00:33:32;;;;;;;8.37;6.87;;;17.60;74.30;;;17.62;60.33;97575.72;5015566;28;20463;-73
2023/05/22 00:36:00;;;;;;;8.60;7.73;;;17.60;74.10;;;17.59;60.31;97575.44;5022325;28;20459;-73
2023/05/22 00:38:31;;;;;;;8.47;7.40;;;17.60;73.90;;;17.63;60.44;97582.81;5018697;28;20668;-73
2023/05/22 00:40:58;;;;;;;7.73;6.83;;;17.60;74.00;;;17.61;60.28;97578.72;5019019;28;20463;-72
2023/05/22 00:43:26;;;;;;;9.93;8.07;;;17.60;73.90;;;17.59;60.25;97580.91;5010213;28;20467;-72
2023/05/22 00:45:53;;;;;;;7.83;6.47;;;17.60;73.90;;;17.54;60.36;97579.81;5019867;28;20935;-73
2023/05/22 00:48:21;;;;;;;8.13;7.30;;;17.60;73.90;;;17.47;60.52;97581.16;5012968;28;20910;-72
2023/05/22 00:50:49;;;;;;;8.30;7.37;;;17.50;74.00;;;17.47;60.69;97581.97;5011882;28;20514;-73
2023/05/22 00:53:20;;;;;;;7.73;6.80;;;17.50;74.00;;;17.43;60.85;97583.63;4998992;28;20531;-73
2023/05/22 00:55:49;;;;;;;8.43;7.30;;;17.50;74.00;;;17.28;61.03;97560.66;5030363;28;21203;-72
2023/05/22 00:58:18;;;;;;;9.30;7.63;;;17.40;74.10;;;17.37;60.88;97573.78;5027970;28;20842;-72
2023/05/22 01:00:46;;;;;;;8.10;6.30;;;17.40;74.10;;;17.28;61.01;97571.56;5003212;28;20462;-72
2023/05/22 01:03:15;;;;;;;7.60;6.80;;;17.30;74.30;;;17.29;61.15;97577.88;5017472;28;20826;-74
2023/05/22 01:05:44;;;;;;;9.13;7.63;;;17.30;74.40;;;16.94;61.31;97533.81;5009749;28;20556;-73
2023/05/22 01:08:11;;;;;;;7.60;6.80;;;17.30;74.30;;;17.27;61.21;97575.41;5011635;28;20486;-73
2023/05/22 01:10:40;;;;;;;12.00;7.17;;;17.20;74.30;;;17.33;61.32;97589.03;5029167;28;21033;-70
2023/05/22 01:13:23;;;;;;;8.60;7.70;;;17.20;74.60;;;17.19;61.53;97586.03;5024938;28;20485;-72
2023/05/22 01:15:58;;;;;;;8.20;7.33;;;17.20;74.60;;;17.19;61.34;97589.56;5021443;28;20464;-71
2023/05/22 01:18:32;;;;;;;8.07;7.30;;;17.10;74.60;;;17.12;61.85;97584.34;5024997;28;20485;-73
2023/05/22 01:21:08;;;;;;;8.40;7.10;;;17.10;74.70;;;16.79;61.78;97531.03;5010746;28;20447;-72
2023/05/22 01:24:31;;;;;;;8.80;7.47;;;17.10;74.80;;;17.06;61.53;97588.16;5026380;28;21112;-71
2023/05/22 01:27:34;;;;;;;7.83;7.03;;;17.00;74.90;;;17.04;61.66;97581.31;5019677;28;20463;-70
2023/05/22 01:30:21;;;;;;;7.37;6.67;;;17.00;74.90;;;16.97;61.90;97587.84;5030977;28;20547;-73
2023/05/22 01:32:51;;;;;;;8.63;7.73;;;17.00;75.00;;;16.98;61.83;97584.03;5014414;28;20462;-72
2023/05/22 01:35:21;;;;;;;8.40;7.60;;;16.90;75.00;;;16.93;61.95;97592.19;5027404;28;20493;-73
2023/05/22 01:37:48;;;;;;;8.73;6.77;;;16.90;75.10;;;16.93;61.76;97586.75;5012530;28;20997;-71
2023/05/22 01:40:18;;;;;;;7.40;6.63;;;16.90;75.30;;;16.88;61.91;97580.44;5007300;28;20573;-72
2023/05/22 01:42:46;;;;;;;8.17;7.30;;;16.90;75.00;;;16.54;61.86;97529.84;5023283;28;20461;-71
2023/05/22 01:45:15;;;;;;;8.47;6.70;;;16.90;75.00;;;16.83;61.62;97570.31;5024034;28;20471;-71
2023/05/22 01:47:42;;;;;;;9.07;8.17;;;16.90;74.90;;;16.90;61.73;97586.44;5005176;28;20849;-72
2023/05/22 01:50:11;;;;;;;11.73;8.10;;;16.90;74.80;;;16.91;61.80;97588.91;5014725;28;20480;-72
2023/05/22 01:52:48;;;;;;;8.60;6.90;;;16.90;74.80;;;16.46;61.50;97517.53;5019311;28;20462;-71
2023/05/22 01:55:22;;;;;;;10.57;8.00;;;16.90;74.60;;;16.91;62.00;97588.91;5022093;28;20462;-71
2023/05/22 01:57:59;;;;;;;8.87;7.83;;;16.80;74.80;;;16.88;61.62;97588.63;5025579;28;20472;-71
2023/05/22 02:00:28;;;;;;;6.77;6.10;;;16.80;74.70;;;16.81;61.74;97588.88;5022701;28;21020;-72
2023/05/22 02:03:08;;;;;;;7.63;6.77;;;16.80;74.80;;;16.67;61.91;97592.09;5015793;28;20462;-71
2023/05/22 02:05:40;;;;;;;7.53;6.83;;;16.80;74.90;;;16.70;61.84;97597.00;4994725;28;20463;-69
2023/05/22 02:08:07;;;;;;;8.70;7.40;;;16.70;74.90;;;16.68;61.90;97588.28;5010803;28;20479;-71
2023/05/22 02:10:36;;;;;;;6.43;5.77;;;16.60;75.10;;;16.65;62.20;97591.53;5023140;28;20481;-71
2023/05/22 02:13:03;;;;;;;8.23;7.40;;;16.60;75.20;;;16.59;62.19;97587.13;4994164;28;20485;-71
2023/05/22 02:15:32;;;;;;;7.10;6.40;;;16.60;75.30;;;16.63;61.89;97582.81;5018032;28;20466;-72
2023/05/22 02:18:00;;;;;;;8.93;7.10;;;16.60;75.20;;;16.56;61.92;97582.22;5009458;28;20469;-72
2023/05/22 02:20:28;;;;;;;9.07;8.17;;;16.60;75.20;;;16.61;62.00;97595.06;5015819;28;20461;-71
2023/05/22 02:22:56;;;;;;;7.07;6.37;;;16.60;75.20;;;16.66;61.76;97585.00;5009548;28;20462;-72
2023/05/22 02:25:23;;;;;;;8.73;7.20;;;16.60;75.50;;;16.53;62.34;97589.03;5015374;28;20465;-71
2023/05/22 02:27:51;;;;;;;10.77;7.40;;;16.60;75.30;;;16.57;62.12;97581.97;4992683;28;20489;-73
2023/05/22 02:30:18;;;;;;;7.90;7.10;;;16.50;75.30;;;16.51;62.01;97574.81;4996779;28;20561;-72
2023/05/22 02:32:45;;;;;;;8.97;7.80;;;16.50;75.10;;;16.49;62.17;97581.63;5015704;28;20464;-72
2023/05/22 02:35:12;;;;;;;8.17;7.27;;;16.50;75.10;;;16.57;61.98;97589.31;5013672;28;20543;-72
2023/05/22 02:37:39;;;;;;;8.40;7.10;;;16.50;75.30;;;16.45;62.05;97575.06;5009197;28;20597;-72
2023/05/22 02:40:10;;;;;;;7.40;6.30;;;16.50;75.10;;;16.51;61.80;97574.00;5017228;28;20469;-71
2023/05/22 02:42:37;;;;;;;8.63;7.23;;;16.50;74.90;;;16.61;61.93;97574.06;5010365;28;20463;-71
2023/05/22 02:45:06;;;;;;;7.23;6.20;;;16.50;75.00;;;16.54;61.00;97573.47;5022447;28;20490;-72
2023/05/22 02:47:33;;;;;;;6.67;5.90;;;16.50;74.70;;;16.57;61.14;97578.38;4996089;28;20463;-71
2023/05/22 02:50:00;;;;;;;7.93;7.13;;;16.60;74.40;;;16.66;61.13;97568.63;5000341;28;21105;-72
2023/05/22 02:52:28;;;;;;;8.33;6.40;;;16.60;74.40;;;16.70;60.87;97568.94;5017763;28;20496;-71
2023/05/22 02:54:55;;;;;;;8.30;7.50;;;16.60;74.10;;;16.39;61.13;97530.63;5010323;28;20490;-72
2023/05/22 02:57:23;;;;;;;11.13;7.50;;;16.60;74.40;;;16.73;60.55;97568.38;5008646;28;20461;-72
2023/05/22 02:59:51;;;;;;;7.53;6.57;;;16.70;74.00;;;16.65;60.65;97575.16;5019589;28;20462;-72
2023/05/22 03:02:18;;;;;;;6.83;6.03;;;16.60;73.90;;;16.58;61.08;97574.56;5016714;28;20484;-72
2023/05/22 03:04:45;;;;;;;7.47;6.53;;;16.60;74.00;;;16.51;61.34;97571.28;5023718;28;20464;-73
2023/05/22 03:07:13;;;;;;;7.10;6.37;;;16.50;74.40;;;16.51;61.81;97579.47;5014930;28;20470;-73
2023/05/22 03:09:40;;;;;;;7.77;6.97;;;16.50;74.60;;;16.50;62.15;97566.91;5015352;28;20939;-72
2023/05/22 03:12:09;;;;;;;8.13;7.00;;;16.40;75.20;;;16.42;62.11;97582.69;5011769;28;20462;-74
2023/05/22 03:14:37;;;;;;;8.33;7.43;;;16.30;75.10;;;16.38;62.58;97588.94;5001314;28;20485;-73
2023/05/22 03:17:05;;;;;;;12.43;7.93;;;16.30;75.40;;;16.32;62.86;97577.19;5008026;28;20548;-74
2023/05/22 03:19:32;;;;;;;7.90;7.10;;;16.20;75.50;;;16.20;62.70;97580.09;5011662;28;21211;-73
2023/05/22 03:21:59;;;;;;;8.37;6.90;;;16.20;75.70;;;16.28;63.18;97581.50;5015247;28;20893;-74
2023/05/22 03:24:26;;;;;;;9.43;7.53;;;16.20;76.00;;;16.17;63.10;97579.81;5024775;28;20472;-74
2023/05/22 03:26:54;;;;;;;9.67;7.50;;;16.10;75.90;;;16.05;63.31;97589.00;5008990;28;20545;-74
2023/05/22 03:29:21;;;;;;;7.70;6.70;;;16.00;76.20;;;16.08;63.73;97598.56;5005326;28;20464;-72
2023/05/22 03:31:49;;;;;;;8.23;6.87;;;15.90;76.60;;;16.04;63.84;97590.09;5000452;28;20588;-74
2023/05/22 03:34:17;;;;;;;9.43;7.90;;;15.90;76.70;;;16.00;63.97;97591.69;4997991;28;20499;-73
2023/05/22 03:36:45;;;;;;;10.33;7.90;;;15.90;76.90;;;15.95;63.92;97588.91;5010562;28;20513;-73
2023/05/22 03:39:12;;;;;;;8.63;7.50;;;15.90;77.00;;;15.94;63.78;97581.84;5007922;28;20455;-72
2023/05/22 03:41:39;;;;;;;8.93;7.10;;;15.80;77.10;;;15.99;64.24;97590.88;5013541;28;20519;-73
2023/05/22 03:44:07;;;;;;;8.50;7.00;;;15.90;77.20;;;15.99;64.46;97590.03;4999838;28;20549;-74
2023/05/22 03:46:34;;;;;;;9.13;8.17;;;15.90;77.20;;;15.91;64.32;97588.63;5011952;28;20528;-74
2023/05/22 03:49:02;;;;;;;8.27;7.47;;;15.90;77.10;;;15.91;64.00;97576.91;5009494;28;20469;-74
2023/05/22 03:51:30;;;;;;;8.10;7.23;;;15.90;77.20;;;15.97;64.10;97592.19;5016735;28;21033;-75
2023/05/22 03:53:57;;;;;;;10.27;7.23;;;15.90;77.10;;;16.04;64.64;97592.81;5015726;28;20488;-73
2023/05/22 03:56:25;;;;;;;7.30;6.50;;;15.90;77.50;;;16.14;63.93;97590.13;5010285;28;20873;-74
2023/05/22 03:58:52;;;;;;;8.40;6.80;;;15.90;77.60;;;16.20;63.71;97579.28;5007234;28;20829;-73
2023/05/22 04:01:19;;;;;;;8.23;7.27;;;16.00;77.50;;;16.24;63.88;97574.94;5009222;28;20489;-72
2023/05/22 04:03:46;;;;;;;9.23;7.23;;;16.10;77.70;;;16.23;63.34;97584.22;5024292;28;20539;-71
2023/05/22 04:06:16;;;;;;;8.40;7.33;;;16.00;77.30;;;16.27;64.00;97577.97;5010509;28;20451;-73
2023/05/22 04:08:43;;;;;;;7.77;7.03;;;16.10;77.40;;;16.52;63.25;97575.66;4993989;28;20458;-72
2023/05/22 04:11:14;;;;;;;9.30;6.67;;;16.20;77.70;;;16.96;61.84;97579.91;4989044;28;20497;-72
2023/05/22 04:13:41;;;;;;;10.50;7.07;;;16.60;77.10;;;17.48;60.56;97580.88;5018372;28;20457;-72
2023/05/22 04:16:09;;;;;;;9.17;6.80;;;17.20;76.20;;;17.77;59.70;97588.53;5013602;28;20463;-73
2023/05/22 04:18:36;;;;;;;8.27;7.40;;;17.60;75.30;;;18.06;57.77;97598.94;5018308;28;20465;-72
2023/05/22 04:21:06;;;;;;;8.43;7.53;;;17.90;73.70;;;18.14;58.14;97602.25;5005931;28;20998;-72
2023/05/22 04:23:42;;;;;;;7.60;6.90;;;18.00;73.30;;;18.15;57.23;97592.94;5015049;28;20463;-73
2023/05/22 04:26:09;;;;;;;8.10;6.73;;;18.20;72.40;;;18.17;57.66;97599.75;4991348;28;20467;-72
2023/05/22 04:28:36;;;;;;;9.00;7.37;;;18.30;72.40;;;18.38;57.43;97603.28;5014883;28;20950;-72
2023/05/22 04:31:05;;;;;;;7.47;6.67;;;18.30;72.30;;;19.19;55.26;97596.19;5015445;28;20466;-73
2023/05/22 04:33:34;;;;;;;8.90;6.97;;;18.90;71.70;;;19.51;54.02;97601.19;5026864;28;20924;-72
2023/05/22 04:36:01;;;;;;;9.10;8.13;;;19.50;69.60;;;20.21;52.01;97598.47;5024061;28;21025;-72
2023/05/22 04:38:29;;;;;;;7.40;6.67;;;20.10;67.90;;;20.66;50.83;97601.81;5004508;28;20465;-71
2023/05/22 04:40:59;;;;;;;7.40;6.80;;;20.40;67.10;;;20.83;50.03;97595.06;4996260;28;20463;-71
2023/05/22 04:43:26;;;;;;;7.97;7.17;;;20.70;65.00;;;21.38;48.72;97599.31;5017791;28;20451;-71
2023/05/22 04:45:53;;;;;;;8.23;7.30;;;21.30;63.90;;;21.85;47.80;97601.38;5005592;28;20454;-72
2023/05/22 04:48:21;;;;;;;7.70;6.90;;;21.80;62.50;;;22.48;46.16;97602.81;4993877;28;20476;-72
2023/05/22 04:50:49;;;;;;;7.00;6.30;;;22.20;61.20;;;22.12;46.59;97599.84;5012799;28;20477;-72
2023/05/22 04:53:16;;;;;;;8.40;7.10;;;22.40;60.10;;;21.64;48.01;97601.69;5008922;28;20479;-71
2023/05/22 04:55:44;;;;;;;8.37;7.20;;;21.90;60.30;;;22.17;46.90;97597.00;5020756;28;20482;-72
2023/05/22 04:58:13;;;;;;;8.17;6.80;;;22.30;60.00;;;22.29;46.43;97604.75;4999893;28;20543;-72
2023/05/22 05:00:40;;;;;;;9.07;8.10;;;22.70;59.00;;;22.51;46.12;97606.88;5003510;28;20474;-72
2023/05/22 05:03:10;;;;;;;8.37;7.57;;;22.80;58.60;;;22.27;45.62;97544.56;5022935;28;20496;-70
2023/05/22 05:05:37;;;;;;;7.50;6.73;;;23.10;58.10;;;22.69;45.51;97605.16;5014385;28;20510;-71
2023/05/22 05:08:04;;;;;;;9.20;8.10;;;23.30;57.70;;;22.81;45.06;97593.63;5009019;28;20469;-72
2023/05/22 05:10:32;;;;;;;7.73;6.93;;;23.30;57.50;;;22.49;45.54;97603.59;5015659;28;20469;-72
2023/05/22 05:12:59;;;;;;;9.43;6.70;;;23.30;56.80;;;22.70;45.58;97597.72;5011449;28;20556;-70
2023/05/22 05:15:28;;;;;;;10.43;7.47;;;23.10;57.10;;;22.29;46.63;97605.59;4997336;28;20561;-70
2023/05/22 05:17:55;;;;;;;8.00;7.20;;;23.10;57.20;;;22.54;46.11;97606.28;5013975;28;20483;-72
2023/05/22 05:20:24;;;;;;;8.37;7.47;;;23.20;56.90;;;22.78;45.86;97597.81;5018104;28;20529;-71
2023/05/22 05:22:51;;;;;;;8.00;7.27;;;23.30;57.10;;;22.26;46.92;97605.38;4998422;28;20466;-71
2023/05/22 05:25:18;;;;;;;13.90;8.10;;;23.00;56.90;;;22.53;45.93;97604.66;4993681;28;20450;-71
2023/05/22 05:27:45;;;;;;;7.60;6.90;;;23.20;56.70;;;22.60;46.24;97599.53;5005770;28;20613;-75
2023/05/22 05:30:13;;;;;;;8.63;7.73;;;23.30;56.70;;;22.98;45.17;97598.53;5011236;28;20451;-78
2023/05/22 05:32:42;;;;;;;6.80;6.20;;;23.50;56.30;;;23.04;45.12;97601.97;5015272;28;20494;-79
2023/05/22 05:35:09;;;;;;;8.30;7.50;;;23.70;56.20;;;22.71;45.86;97596.59;5018517;28;20545;-75
2023/05/22 05:37:36;;;;;;;7.90;7.10;;;23.60;56.00;;;22.28;46.94;97603.97;4993413;28;20460;-76
2023/05/22 05:40:05;;;;;;;7.63;6.83;;;23.30;56.20;;;22.89;45.29;97609.44;5001089;28;20545;-77
2023/05/22 05:42:33;;;;;;;8.40;7.47;;;23.50;56.10;;;23.42;43.77;97590.69;5020989;28;20449;-79
2023/05/22 05:45:00;;;;;;;8.93;7.67;;;23.70;55.70;;;23.34;45.07;97599.72;4997718;28;20535;-69
2023/05/22 05:47:28;;;;;;;7.87;7.07;;;23.70;56.30;;;23.80;43.35;97599.78;5014489;28;20465;-70
2023/05/22 05:49:57;;;;;;;7.37;6.60;;;24.30;55.30;;;23.61;43.10;97600.78;5021087;28;20493;-71
2023/05/22 05:52:25;;;;;;;7.60;6.80;;;24.60;54.50;;;24.32;42.54;97607.63;5000632;28;21022;-70
2023/05/22 05:54:53;;;;;;;7.27;6.57;;;25.00;54.60;;;23.89;43.21;97608.94;5017600;28;20471;-77
2023/05/22 05:57:20;;;;;;;7.50;6.80;;;24.90;54.30;;;23.55;44.22;97602.00;5015314;28;20478;-76
2023/05/22 05:59:48;;;;;;;7.27;6.57;;;24.70;54.30;;;25.21;40.25;97565.38;5020556;28;20543;-75
2023/05/22 06:02:15;;;;;;;7.40;6.70;;;25.40;54.20;;;25.20;40.75;97615.44;4996720;28;20549;-76
2023/05/22 06:04:42;;;;;;;7.40;6.63;;;25.70;53.30;;;24.93;41.36;97617.31;5003610;28;20951;-76
2023/05/22 06:07:11;;;;;;;6.80;6.20;;;25.70;53.30;;;24.21;42.16;97614.53;4998295;28;20457;-76
2023/05/22 06:09:38;;;;;;;7.07;6.37;;;25.10;53.20;;;24.40;42.17;97559.91;5017932;28;20461;-74
2023/05/22 06:12:06;;;;;;;7.80;7.00;;;25.10;53.70;;;24.84;41.05;97626.41;4995647;28;20468;-75
2023/05/22 06:14:33;;;;;;;7.93;7.10;;;25.60;52.90;;;24.15;42.76;97622.94;4998918;28;20502;-75
2023/05/22 06:17:01;;;;;;;10.67;7.27;;;25.20;53.10;;;22.61;44.88;97623.19;4997021;28;20468;-73
2023/05/22 06:19:28;;;;;;;6.90;6.03;;;23.90;53.20;;;21.72;47.75;97617.53;5017947;28;20559;-75
2023/05/22 06:21:55;;;;;;;9.73;7.20;;;22.60;54.60;;;21.65;47.48;97581.34;4993022;28;21132;-74
2023/05/22 06:24:23;;;;;;;7.80;7.10;;;22.00;55.50;;;21.84;48.02;97624.50;5016032;28;20470;-74
2023/05/22 06:26:50;;;;;;;9.20;6.80;;;21.80;56.20;;;21.55;49.30;97620.78;5008721;28;20463;-74
2023/05/22 06:29:17;;;;;;;7.00;6.30;;;21.60;57.10;;;21.66;49.21;97621.47;5018197;28;21179;-75
2023/05/22 06:31:44;;;;;;;7.77;7.00;;;21.50;57.90;;;21.56;49.24;97610.59;5017786;28;20497;-76
2023/05/22 06:34:11;;;;;;;7.33;6.63;;;21.50;57.70;;;21.27;49.54;97619.78;4997920;28;20458;-73
2023/05/22 06:36:39;;;;;;;8.30;7.50;;;21.40;57.70;;;21.14;49.94;97616.66;5012618;28;20459;-74
2023/05/22 06:39:07;;;;;;;8.43;7.07;;;21.20;58.10;;;20.98;50.71;97612.47;5022707;28;20474;-77
2023/05/22 06:41:36;;;;;;;7.33;6.23;;;21.10;58.70;;;21.09;51.19;97613.97;5013755;28;20458;-75
2023/05/22 06:44:05;;;;;;;7.63;6.93;;;21.00;59.30;;;21.18;51.10;97606.72;5002144;28;20485;-74
2023/05/22 06:46:32;;;;;;;7.80;7.10;;;21.10;59.50;;;21.52;50.31;97611.19;5023412;28;20578;-75
2023/05/22 06:48:59;;;;;;;10.17;7.70;;;21.30;59.50;;;21.22;50.23;97613.25;5025427;28;20470;-75
2023/05/22 06:51:26;;;;;;;7.40;6.70;;;21.30;58.80;;;21.34;49.63;97606.53;5018371;28;20458;-74
2023/05/22 06:53:54;;;;;;;8.40;7.33;;;21.30;58.80;;;21.19;49.99;97608.38;5021152;28;20467;-75
2023/05/22 06:56:23;;;;;;;8.97;6.90;;;21.30;58.80;;;21.06;50.37;97611.84;5002216;28;20917;-73
2023/05/22 06:58:51;;;;;;;8.70;7.80;;;21.30;58.90;;;20.98;50.64;97598.75;5018093;28;20485;-74
2023/05/22 07:01:18;;;;;;;8.03;7.23;;;21.10;59.20;;;21.43;50.82;97612.97;5003502;28;20536;-74
2023/05/22 07:03:46;;;;;;;8.97;7.17;;;21.30;59.90;;;21.38;50.49;97621.28;5022989;28;20469;-75
2023/05/22 07:06:13;;;;;;;7.80;7.07;;;21.30;59.70;;;21.90;49.44;97613.13;4994804;28;21570;-75
2023/05/22 07:08:40;;;;;;;8.40;7.60;;;21.60;59.80;;;21.84;49.63;97617.09;5001478;28;20467;-74
2023/05/22 07:11:07;;;;;;;7.87;7.07;;;21.70;59.50;;;22.08;49.10;97610.63;5016598;28;20965;-75
2023/05/22 07:13:35;;;;;;;9.33;7.13;;;21.80;59.30;;;22.31;48.63;97616.31;5001772;28;21066;-76
2023/05/22 07:16:05;;;;;;;8.10;7.27;;;22.00;59.20;;;22.21;48.66;97614.53;4992085;28;20968;-76
2023/05/22 07:18:32;;;;;;;8.33;7.53;;;22.10;59.10;;;22.33;48.68;97616.81;4999345;28;20506;-75
2023/05/22 07:20:59;;;;;;;7.50;6.80;;;22.20;59.10;;;22.71;47.79;97610.38;5019257;28;20465;-78
2023/05/22 07:23:27;;;;;;;8.67;7.80;;;22.40;58.90;;;22.87;47.85;97619.94;4996523;28;20458;-76
2023/05/22 07:25:54;;;;;;;9.97;7.30;;;22.60;59.20;;;22.50;47.66;97619.81;5016460;28;20459;-74
2023/05/22 07:28:21;;;;;;;8.73;7.90;;;22.60;58.20;;;22.67;47.68;97614.81;5010958;28;20487;-75
2023/05/22 07:30:48;;;;;;;9.83;7.63;;;22.50;58.50;;;22.82;47.74;97617.28;5017119;28;20467;-75
2023/05/22 07:33:17;;;;;;;8.20;7.40;;;22.60;58.70;;;22.98;47.14;97615.03;4993780;28;20460;-75
2023/05/22 07:35:45;;;;;;;7.80;7.10;;;22.80;58.40;;;23.13;46.45;97611.16;5007451;28;20478;-73
2023/05/22 07:38:12;;;;;;;7.77;6.97;;;22.90;57.90;;;22.57;47.00;97607.59;5017057;28;20990;-73
2023/05/22 07:40:39;;;;;;;7.10;6.50;;;22.80;57.30;;;22.90;46.46;97604.75;5015946;28;20491;-75
2023/05/22 07:43:06;;;;;;;6.90;6.30;;;22.80;57.50;;;22.91;44.90;97598.13;5006156;28;20468;-75
2023/05/22 07:45:34;;;;;;;8.93;6.53;;;22.90;56.20;;;23.14;44.53;97601.78;5015021;28;20520;-75
2023/05/22 07:48:03;;;;;;;6.10;5.50;;;22.90;56.00;;;23.21;44.36;97602.16;5000413;28;20554;-75
2023/05/22 07:50:32;;;;;;;7.27;6.60;;;23.10;55.90;;;23.37;43.11;97601.06;5004571;28;20474;-73
2023/05/22 07:52:59;;;;;;;7.30;6.60;;;23.20;55.00;;;23.51;42.82;97593.56;5009311;28;20467;-75
2023/05/22 07:55:27;;;;;;;6.60;5.90;;;23.40;54.70;;;23.27;43.21;97610.34;4998997;28;20684;-73
2023/05/22 07:57:55;;;;;;;6.83;6.13;;;23.30;54.50;;;23.60;42.21;97596.38;5009014;28;20472;-72
2023/05/22 08:00:24;;;;;;;6.70;6.07;;;23.40;54.10;;;23.67;41.80;97602.28;5015071;28;20482;-74
2023/05/22 08:02:51;;;;;;;6.80;6.20;;;23.50;53.80;;;23.66;41.75;97606.16;5010522;28;20491;-77
2023/05/22 08:05:18;;;;;;;7.57;6.87;;;23.50;53.70;;;23.87;41.52;97602.91;5016955;28;20469;-75
2023/05/22 08:07:46;;;;;;;6.90;6.33;;;23.70;53.70;;;23.73;41.74;97595.53;5014912;28;20462;-75
2023/05/22 08:10:16;;;;;;;7.00;6.23;;;23.70;53.40;;;23.81;41.45;97606.91;5014451;28;20872;-74
2023/05/22 08:12:44;;;;;;;7.73;6.93;;;23.70;53.50;;;23.81;41.52;97612.44;5009159;28;20981;-73
2023/05/22 08:15:12;;;;;;;7.27;6.57;;;23.70;53.50;;;23.96;41.33;97602.97;4990998;28;20471;-75
2023/05/22 08:17:39;;;;;;;7.27;6.67;;;23.80;53.20;;;24.20;41.02;97605.44;5011892;28;20516;-79
2023/05/22 08:20:08;;;;;;;6.23;5.63;;;24.00;53.40;;;23.91;41.08;97599.19;5019907;28;20468;-78
2023/05/22 08:22:38;;;;;;;6.30;5.70;;;23.90;52.90;;;24.26;40.94;97598.66;5010988;28;20454;-74
2023/05/22 08:25:08;;;;;;;7.13;6.43;;;24.00;53.30;;;24.36;40.11;97602.28;5008108;28;20518;-73
2023/05/22 08:27:35;;;;;;;7.50;6.80;;;24.10;52.70;;;24.11;40.27;97599.03;5003590;28;20551;-75
2023/05/22 08:30:03;;;;;;;7.67;6.97;;;24.10;52.50;;;24.56;40.71;97604.47;5012625;28;20523;-74
2023/05/22 08:32:30;;;;;;;7.03;6.27;;;24.20;53.10;;;24.59;39.92;97603.84;4999593;28;20457;-73
2023/05/22 08:34:58;;;;;;;6.73;6.13;;;24.40;52.60;;;24.64;39.66;97599.31;5003574;28;20468;-74
2023/05/22 08:37:25;;;;;;;7.37;6.67;;;24.40;52.20;;;24.78;39.16;97602.00;4991293;28;21207;-75
2023/05/22 08:39:52;;;;;;;7.20;6.50;;;24.50;51.90;;;24.59;38.78;97594.75;4984289;28;20998;-76
2023/05/22 08:42:21;;;;;;;7.00;6.37;;;24.50;51.60;;;24.90;38.34;97603.00;4987684;28;20955;-73
2023/05/22 08:44:48;;;;;;;7.10;6.40;;;24.70;51.60;;;24.73;38.90;97598.22;5015802;28;20472;-74
2023/05/22 08:47:17;;;;;;;6.83;6.23;;;24.60;51.30;;;24.65;38.97;97589.91;5011294;28;20475;-73
2023/05/22 08:49:48;;;;;;;6.80;6.20;;;24.50;51.70;;;24.46;39.05;97582.66;4989221;28;21106;-74
2023/05/22 08:52:22;;;;;;;7.33;6.60;;;24.40;51.30;;;24.88;38.76;97591.47;5010592;28;20539;-72
2023/05/22 08:54:54;;;;;;;6.07;5.57;;;24.60;51.40;;;25.14;38.56;97590.72;5003401;28;20581;-73
2023/05/22 08:57:24;;;;;;;6.30;5.63;;;24.80;51.60;;;24.96;38.66;97583.53;4995625;28;20463;-74
2023/05/22 08:59:51;;;;;;;7.70;7.00;;;24.80;51.60;;;24.59;38.90;97579.00;4997481;28;20594;-72
2023/05/22 09:02:20;;;;;;;6.20;5.70;;;24.60;51.00;;;24.64;38.77;97579.97;5012600;28;20470;-72
2023/05/22 09:04:47;;;;;;;6.93;5.97;;;24.60;50.80;;;25.20;38.19;97573.97;4991239;28;20489;-73
2023/05/22 09:07:15;;;;;;;6.60;6.07;;;24.80;51.30;;;25.36;38.00;97588.16;4997299;28;20460;-75
2023/05/22 09:09:43;;;;;;;6.83;6.23;;;25.10;51.30;;;25.36;38.02;97572.38;5016780;28;20460;-78
2023/05/22 09:12:10;;;;;;;7.23;6.60;;;25.10;51.20;;;24.99;38.54;97577.38;5019484;28;20464;-70
2023/05/22 09:14:43;;;;;;;8.47;6.70;;;25.00;50.90;;;25.16;39.04;97582.09;5004726;28;20822;-80
2023/05/22 09:17:15;;;;;;;7.40;6.70;;;24.90;51.50;;;25.37;38.34;97573.19;5019476;28;20550;-78
2023/05/22 09:19:45;;;;;;;7.00;6.30;;;25.10;51.10;;;25.76;37.94;97576.94;5002112;28;20469;-75
2023/05/22 09:22:13;;;;;;;7.00;6.30;;;25.30;51.40;;;25.49;37.78;97567.03;5019877;28;20484;-79
2023/05/22 09:24:42;;;;;;;6.73;6.10;;;25.40;50.60;;;25.60;37.10;97571.13;5011759;28;20468;-79
2023/05/22 09:27:11;;;;;;;7.13;6.50;;;25.40;50.50;;;25.72;37.33;97565.75;5001846;28;20472;-77
2023/05/22 09:29:50;;;;;;;6.77;6.20;;;25.40;50.50;;;25.76;36.88;97573.38;5023355;28;20486;-77
2023/05/22 09:32:20;;;;;;;6.37;5.77;;;25.40;50.30;;;25.73;36.84;97567.38;5018863;28;21273;-74
2023/05/22 09:34:48;;;;;;;6.70;6.00;;;25.50;49.90;;;25.67;36.95;97560.34;5023973;28;20461;-77
2023/05/22 09:37:15;;;;;;;6.90;6.20;;;25.40;49.90;;;25.86;36.93;97559.22;4998744;28;20497;-74
2023/05/22 09:39:44;;;;;;;6.57;5.97;;;25.60;50.00;;;25.81;37.33;97556.59;5021290;28;20460;-74
2023/05/22 09:42:16;;;;;;;7.03;6.33;;;25.60;50.00;;;25.53;36.26;97508.00;5018799;28;20536;-73
2023/05/22 09:44:49;;;;;;;7.63;5.60;;;25.60;49.50;;;25.82;36.11;97519.50;5023268;28;20473;-78
2023/05/22 09:47:17;;;;;;;7.13;6.53;;;25.70;49.40;;;26.24;35.78;97558.50;5002181;28;20454;-75
2023/05/22 09:49:45;;;;;;;6.70;6.10;;;25.90;49.50;;;26.19;36.05;97555.91;5019286;28;20493;-77
2023/05/22 09:52:13;;;;;;;7.93;7.23;;;25.90;49.30;;;26.21;35.82;97548.09;5020168;28;20969;-77
2023/05/22 09:54:47;;;;;;;7.20;6.50;;;25.90;49.30;;;26.41;35.49;97551.28;5010744;28;20455;-80
2023/05/22 09:57:18;;;;;;;7.10;6.03;;;26.10;48.90;;;26.21;35.35;97553.63;5018519;28;20487;-80
2023/05/22 09:59:53;;;;;;;5.80;5.30;;;26.00;48.60;;;26.25;34.49;97545.47;5000416;28;21073;-75
2023/05/22 10:02:23;;;;;;;5.47;5.07;;;26.00;47.80;;;26.08;34.73;97554.59;5012066;28;20457;-78
2023/05/22 10:04:50;;;;;;;6.37;5.87;;;25.90;47.90;;;25.95;35.20;97546.16;5007439;28;20458;-78
2023/05/22 10:07:21;;;;;;;6.13;5.53;;;25.80;48.20;;;26.00;34.87;97532.16;5002478;28;20457;-76
2023/05/22 10:10:04;;;;;;;5.90;5.40;;;25.80;47.90;;;26.05;34.19;97535.91;5018530;28;20524;-80
2023/05/22 10:12:33;;;;;;;6.57;5.97;;;25.80;47.40;;;26.09;34.91;97529.38;5019736;28;20462;-76
2023/05/22 10:15:06;;;;;;;5.70;5.20;;;25.80;47.80;;;26.11;34.66;97537.34;5023439;28;20473;-78
2023/05/22 10:17:34;;;;;;;5.83;5.33;;;25.90;47.70;;;26.14;34.42;97531.97;5015766;28;20482;-77
2023/05/22 10:20:03;;;;;;;6.40;5.80;;;25.90;47.50;;;26.29;34.91;97519.56;4994003;28;20882;-78
2023/05/22 10:22:33;;;;;;;6.93;6.23;;;26.10;48.00;;;26.50;34.10;97523.53;5001686;28;20467;-79
2023/05/22 10:25:01;;;;;;;6.80;6.20;;;26.20;47.50;;;26.34;35.20;97534.38;5013326;28;20461;-78